Time;durP1;ratioP1;P1;durP2;ratioP2;P2;SDS_P1;SDS_P2;PMS_P1;PMS_P2;Temp;Humidity;BMP_temperature;BMP_pressure;BME280_temperature;BME280_humidity;BME280_pressure;Samples;Min_cycle;Max_cycle;Signal;HPM_P1;HPM_P2
2021/08/21 00:01:04;;;;;;;9.50;5.63;;;;;;;;;;4990135;28;20049;-49
2021/08/21 00:03:31;;;;;;;9.02;5.47;;;;;;;;;;4987605;28;20055;-50
2021/08/21 00:05:58;;;;;;;7.47;5.38;;;;;;;;;;4977686;28;20133;-48
2021/08/21 00:08:24;;;;;;;7.45;5.10;;;;;;;;;;4986653;28;20046;-48
2021/08/21 00:10:51;;;;;;;8.25;5.72;;;;;;;;;;4972539;28;20570;-50
2021/08/21 00:13:18;;;;;;;6.97;5.13;;;;;;;;;;4972546;28;20101;-46
2021/08/21 00:15:45;;;;;;;7.45;5.10;;;;;;;;;;4972048;28;20038;-47
2021/08/21 00:18:12;;;;;;;9.65;5.90;;;;;;;;;;4972323;28;20072;-47
2021/08/21 00:20:39;;;;;;;8.60;5.88;;;;;;;;;;4971296;28;20488;-47
2021/08/21 00:23:05;;;;;;;10.65;5.68;;;;;;;;;;4972335;28;20053;-48
2021/08/21 00:25:32;;;;;;;7.85;5.47;;;;;;;;;;4971769;28;20057;-50
2021/08/21 00:28:05;;;;;;;7.53;5.68;;;;;;;;;;4972505;28;20054;-51
2021/08/21 00:30:32;;;;;;;8.20;6.15;;;;;;;;;;4971094;28;20062;-49
2021/08/21 00:33:08;;;;;;;9.27;5.90;;;;;;;;;;4972287;28;20042;-48
2021/08/21 00:35:35;;;;;;;8.50;6.38;;;;;;;;;;4971376;28;20121;-50
2021/08/21 00:38:02;;;;;;;7.68;5.72;;;;;;;;;;4973168;28;20049;-51
2021/08/21 00:40:29;;;;;;;10.40;6.22;;;;;;;;;;4975823;28;20063;-49
2021/08/21 00:42:56;;;;;;;9.55;5.80;;;;;;;;;;4975584;28;20053;-47
2021/08/21 00:45:23;;;;;;;7.82;5.80;;;;;;;;;;4975076;28;20121;-49
2021/08/21 00:47:49;;;;;;;9.57;6.10;;;;;;;;;;4975750;28;20129;-49
2021/08/21 00:50:17;;;;;;;7.82;5.55;;;;;;;;;;4974374;28;20049;-50
2021/08/21 00:52:44;;;;;;;6.85;5.25;;;;;;;;;;4974284;28;20039;-50
2021/08/21 00:55:11;;;;;;;9.73;5.97;;;;;;;;;;4975109;28;20047;-49
2021/08/21 00:57:38;;;;;;;7.93;5.25;;;;;;;;;;4974272;28;20046;-48
2021/08/21 01:00:05;;;;;;;8.52;5.43;;;;;;;;;;4974417;28;20118;-49
2021/08/21 01:02:32;;;;;;;8.25;5.45;;;;;;;;;;4974557;28;20050;-49
2021/08/21 01:05:00;;;;;;;7.82;5.50;;;;;;;;;;4973954;28;20078;-47
2021/08/21 01:07:31;;;;;;;8.18;5.55;;;;;;;;;;4974119;28;20047;-50
2021/08/21 01:10:00;;;;;;;8.00;5.43;;;;;;;;;;4989896;28;20069;-48
2021/08/21 01:12:27;;;;;;;7.15;5.50;;;;;;;;;;4993518;28;20038;-51
2021/08/21 01:14:54;;;;;;;7.63;5.60;;;;;;;;;;4992745;28;20035;-48
2021/08/21 01:17:21;;;;;;;9.95;6.03;;;;;;;;;;4993347;28;20126;-49
2021/08/21 01:19:50;;;;;;;9.38;6.25;;;;;;;;;;4989129;28;20053;-51
2021/08/21 01:22:28;;;;;;;10.57;6.18;;;;;;;;;;4973909;28;20043;-49
2021/08/21 01:25:15;;;;;;;7.60;5.93;;;;;;;;;;4956950;28;20057;-53
2021/08/21 01:27:42;;;;;;;10.23;6.57;;;;;;;;;;4973674;28;20117;-48
2021/08/21 01:30:20;;;;;;;10.60;6.88;;;;;;;;;;4973997;28;20118;-48
2021/08/21 01:32:53;;;;;;;10.25;6.30;;;;;;;;;;4957751;28;20070;-47
2021/08/21 01:35:23;;;;;;;8.25;5.70;;;;;;;;;;4976126;28;20514;-48
2021/08/21 01:37:50;;;;;;;9.57;5.80;;;;;;;;;;4994163;28;20042;-50
2021/08/21 01:40:33;;;;;;;11.25;5.97;;;;;;;;;;4992923;28;20117;-49
2021/08/21 01:43:12;;;;;;;8.15;5.30;;;;;;;;;;4992936;28;20377;-51
2021/08/21 01:45:48;;;;;;;8.85;5.88;;;;;;;;;;4993898;28;20471;-50
2021/08/21 01:48:17;;;;;;;9.05;6.22;;;;;;;;;;4988575;28;20037;-51
2021/08/21 01:50:45;;;;;;;9.45;6.18;;;;;;;;;;4973633;28;20070;-47
2021/08/21 01:53:14;;;;;;;9.55;6.22;;;;;;;;;;4974316;28;20130;-49
2021/08/21 01:55:42;;;;;;;9.32;5.97;;;;;;;;;;4972472;28;20397;-47
2021/08/21 01:58:21;;;;;;;9.95;6.07;;;;;;;;;;4985500;28;20117;-49
2021/08/21 02:00:59;;;;;;;8.07;5.53;;;;;;;;;;4992447;28;20046;-47
2021/08/21 02:03:32;;;;;;;8.07;6.13;;;;;;;;;;4992695;28;20133;-50
2021/08/21 02:06:02;;;;;;;9.15;5.38;;;;;;;;;;4989707;28;20136;-48
2021/08/21 02:08:29;;;;;;;9.10;5.85;;;;;;;;;;4973172;28;20046;-49
2021/08/21 02:10:56;;;;;;;10.75;6.45;;;;;;;;;;4974100;28;20046;-48
2021/08/21 02:13:25;;;;;;;10.02;6.43;;;;;;;;;;4972716;28;20083;-48
2021/08/21 02:15:52;;;;;;;8.75;6.57;;;;;;;;;;4971989;28;20050;-48
2021/08/21 02:18:18;;;;;;;7.28;6.13;;;;;;;;;;4973848;28;20050;-48
2021/08/21 02:21:08;;;;;;;7.47;6.18;;;;;;;;;;4973485;28;20078;-48
2021/08/21 02:23:35;;;;;;;9.65;6.18;;;;;;;;;;4956388;28;20050;-48
2021/08/21 02:26:03;;;;;;;9.80;6.85;;;;;;;;;;4972381;28;20046;-47
2021/08/21 02:28:34;;;;;;;8.90;6.80;;;;;;;;;;4972573;28;20393;-49
2021/08/21 02:31:01;;;;;;;10.00;7.10;;;;;;;;;;4972489;28;20113;-48
2021/08/21 02:33:29;;;;;;;9.90;6.72;;;;;;;;;;4972364;28;20121;-48
2021/08/21 02:35:56;;;;;;;8.57;6.40;;;;;;;;;;4973037;28;20043;-49
2021/08/21 02:38:22;;;;;;;10.23;6.68;;;;;;;;;;4973099;28;20089;-52
2021/08/21 02:40:49;;;;;;;9.52;7.28;;;;;;;;;;4973591;28;20047;-49
2021/08/21 02:43:16;;;;;;;11.10;7.13;;;;;;;;;;4956139;28;20127;-51
2021/08/21 02:45:43;;;;;;;10.20;6.60;;;;;;;;;;4971395;28;20105;-49
2021/08/21 02:48:10;;;;;;;8.23;6.38;;;;;;;;;;4987384;28;20045;-50
2021/08/21 02:50:37;;;;;;;10.48;6.63;;;;;;;;;;4973509;28;20421;-51
2021/08/21 02:53:03;;;;;;;10.55;6.70;;;;;;;;;;4973252;28;20139;-48
2021/08/21 02:55:31;;;;;;;10.85;6.45;;;;;;;;;;4976695;28;20051;-50
2021/08/21 02:57:58;;;;;;;9.32;6.70;;;;;;;;;;4972174;28;20563;-50
2021/08/21 03:00:33;;;;;;;9.52;6.70;;;;;;;;;;4971857;28;20114;-49
2021/08/21 03:03:04;;;;;;;9.15;6.75;;;;;;;;;;4975732;28;20089;-48
2021/08/21 03:05:31;;;;;;;9.13;6.60;;;;;;;;;;4971475;28;20045;-52
2021/08/21 03:07:59;;;;;;;9.65;6.57;;;;;;;;;;4972307;28;20113;-50
2021/08/21 03:10:27;;;;;;;8.57;7.20;;;;;;;;;;4988153;28;20042;-47
2021/08/21 03:12:58;;;;;;;10.32;6.78;;;;;;;;;;4972075;28;20405;-49
2021/08/21 03:15:26;;;;;;;8.98;6.75;;;;;;;;;;4971200;28;20034;-48
2021/08/21 03:17:53;;;;;;;8.52;6.43;;;;;;;;;;4964401;28;20046;-49
2021/08/21 03:20:21;;;;;;;11.18;7.53;;;;;;;;;;4971989;28;20039;-51
2021/08/21 03:22:48;;;;;;;10.32;6.95;;;;;;;;;;4971758;28;20485;-51
2021/08/21 03:25:21;;;;;;;10.85;6.97;;;;;;;;;;4972849;28;20047;-52
2021/08/21 03:27:49;;;;;;;8.30;6.10;;;;;;;;;;4971732;28;20074;-52
2021/08/21 03:30:17;;;;;;;9.63;6.47;;;;;;;;;;4971903;28;20117;-48
2021/08/21 03:32:44;;;;;;;10.35;6.88;;;;;;;;;;4971668;28;20059;-51
2021/08/21 03:35:13;;;;;;;8.13;6.00;;;;;;;;;;4971449;28;20039;-49
2021/08/21 03:37:40;;;;;;;8.98;6.53;;;;;;;;;;4971669;28;20051;-49
2021/08/21 03:40:08;;;;;;;9.50;7.00;;;;;;;;;;4973072;28;20051;-49
2021/08/21 03:42:35;;;;;;;9.00;6.57;;;;;;;;;;4971517;28;20050;-48
2021/08/21 03:45:09;;;;;;;8.95;6.60;;;;;;;;;;4970969;28;20073;-53
2021/08/21 03:47:37;;;;;;;8.20;5.93;;;;;;;;;;4972420;28;20098;-49
2021/08/21 03:50:05;;;;;;;7.85;6.10;;;;;;;;;;4987584;28;20133;-49
2021/08/21 03:52:35;;;;;;;10.15;6.00;;;;;;;;;;4955280;28;20607;-47
2021/08/21 03:55:02;;;;;;;9.20;6.15;;;;;;;;;;4954764;28;20046;-48
2021/08/21 03:57:30;;;;;;;10.15;6.95;;;;;;;;;;4971671;28;20489;-52
2021/08/21 03:59:57;;;;;;;7.20;5.80;;;;;;;;;;4972588;28;20412;-52
2021/08/21 04:02:24;;;;;;;10.07;6.47;;;;;;;;;;4972516;28;20043;-52
2021/08/21 04:04:51;;;;;;;11.07;6.68;;;;;;;;;;4972323;28;20523;-50
2021/08/21 04:07:18;;;;;;;9.30;6.53;;;;;;;;;;4991990;28;20472;-51
2021/08/21 04:09:45;;;;;;;8.20;6.20;;;;;;;;;;4976814;28;20093;-51
2021/08/21 04:12:16;;;;;;;9.60;6.47;;;;;;;;;;4987611;28;20097;-48
2021/08/21 04:15:00;;;;;;;8.60;5.93;;;;;;;;;;4974527;28;20126;-48
2021/08/21 04:17:27;;;;;;;9.40;6.95;;;;;;;;;;4975066;28;20111;-51
2021/08/21 04:19:55;;;;;;;10.75;6.78;;;;;;;;;;4989637;28;20493;-51
2021/08/21 04:22:22;;;;;;;10.35;7.55;;;;;;;;;;4974890;28;20512;-50
2021/08/21 04:24:53;;;;;;;10.15;7.22;;;;;;;;;;4974290;28;20049;-53
2021/08/21 04:27:22;;;;;;;10.52;6.18;;;;;;;;;;4974856;28;20038;-47
2021/08/21 04:29:49;;;;;;;8.10;6.15;;;;;;;;;;4974850;28;20066;-51
2021/08/21 04:32:17;;;;;;;11.00;6.18;;;;;;;;;;4975018;28;20102;-52
2021/08/21 04:34:44;;;;;;;7.53;6.15;;;;;;;;;;4974276;28;20070;-52
2021/08/21 04:37:14;;;;;;;9.68;6.25;;;;;;;;;;4975672;28;20047;-48
2021/08/21 04:39:42;;;;;;;12.38;6.90;;;;;;;;;;4974696;28;20310;-47
2021/08/21 04:42:12;;;;;;;9.50;6.90;;;;;;;;;;4974767;28;20042;-48
2021/08/21 04:44:38;;;;;;;8.23;6.68;;;;;;;;;;4973888;28;20070;-48
2021/08/21 04:47:09;;;;;;;10.43;6.75;;;;;;;;;;4974957;28;20053;-48
2021/08/21 04:49:39;;;;;;;9.52;7.05;;;;;;;;;;4974414;28;20054;-52
2021/08/21 04:52:06;;;;;;;9.27;6.93;;;;;;;;;;4974487;28;20089;-48
2021/08/21 04:54:34;;;;;;;9.77;6.55;;;;;;;;;;4973840;28;20497;-50
2021/08/21 04:57:00;;;;;;;7.93;6.65;;;;;;;;;;4974916;28;20515;-51
2021/08/21 04:59:33;;;;;;;9.77;6.80;;;;;;;;;;4975636;28;20039;-49
2021/08/21 05:02:03;;;;;;;10.55;7.28;;;;;;;;;;4974308;28;20468;-49
2021/08/21 05:04:29;;;;;;;8.43;6.13;;;;;;;;;;4974156;28;20059;-51
2021/08/21 05:06:57;;;;;;;7.88;6.65;;;;;;;;;;4974154;28;20053;-50
2021/08/21 05:09:25;;;;;;;10.10;7.25;;;;;;;;;;4982324;28;20039;-48
2021/08/21 05:11:56;;;;;;;11.05;7.25;;;;;;;;;;4990223;28;20049;-48
2021/08/21 05:14:24;;;;;;;9.57;7.13;;;;;;;;;;4989486;28;20035;-50
2021/08/21 05:16:52;;;;;;;8.50;6.75;;;;;;;;;;4992657;28;20593;-52
2021/08/21 05:19:52;;;;;;;10.55;7.35;;;;;;;;;;4982621;28;20448;-49
2021/08/21 05:25:15;;;;;;;9.48;7.13;;;;;;;;;;4992290;28;20093;-50
2021/08/21 05:27:42;;;;;;;10.32;6.93;;;;;;;;;;4974600;28;20062;-50
2021/08/21 05:30:10;;;;;;;9.40;7.15;;;;;;;;;;4975000;28;20049;-52
2021/08/21 05:32:37;;;;;;;9.75;7.13;;;;;;;;;;4975032;28;20416;-49
2021/08/21 05:35:04;;;;;;;8.85;6.43;;;;;;;;;;4974140;28;20173;-53
2021/08/21 05:37:30;;;;;;;8.80;6.53;;;;;;;;;;4993185;28;20069;-49
2021/08/21 05:39:57;;;;;;;9.32;6.95;;;;;;;;;;4977770;28;20045;-49
2021/08/21 05:42:24;;;;;;;8.68;6.80;;;;;;;;;;4974524;28;20039;-49
2021/08/21 05:44:51;;;;;;;9.88;6.82;;;;;;;;;;4973760;28;20047;-48
2021/08/21 05:47:18;;;;;;;9.48;7.13;;;;;;;;;;5013604;23;20141;-50
2021/08/21 05:49:44;;;;;;;9.57;7.55;;;;;;;;;;5013562;28;20044;-51
2021/08/21 05:52:11;;;;;;;9.98;7.50;;;;;;;;;;5013456;28;20129;-51
2021/08/21 05:54:38;;;;;;;10.65;7.32;;;;;;;;;;5012692;28;20136;-50
2021/08/21 05:57:14;;;;;;;9.38;7.15;;;;;;;;;;5011649;28;20566;-50
2021/08/21 05:59:40;;;;;;;13.85;7.88;;;;;;;;;;5013235;28;20426;-52
2021/08/21 06:02:07;;;;;;;9.75;7.20;;;;;;;;;;5013372;28;20129;-49
2021/08/21 06:04:34;;;;;;;10.13;7.72;;;;;;;;;;5012251;28;20049;-50
2021/08/21 06:07:01;;;;;;;11.10;8.27;;;;;;;;;;5012058;28;20575;-50
2021/08/21 06:09:27;;;;;;;9.95;7.72;;;;;;;;;;5012284;28;20080;-51
2021/08/21 06:11:57;;;;;;;10.52;7.88;;;;;;;;;;5011838;28;20065;-50
2021/08/21 06:14:24;;;;;;;10.00;8.30;;;;;;;;;;5012190;28;20056;-48
2021/08/21 06:16:50;;;;;;;9.48;7.35;;;;;;;;;;5011548;28;20048;-49
2021/08/21 06:19:17;;;;;;;11.35;8.18;;;;;;;;;;5012900;28;20042;-51
2021/08/21 06:21:44;;;;;;;12.98;8.15;;;;;;;;;;5013094;28;20427;-51
2021/08/21 06:24:11;;;;;;;13.70;7.72;;;;;;;;;;5012144;28;20491;-51
2021/08/21 06:26:38;;;;;;;9.20;7.18;;;;;;;;;;5012636;28;20046;-53
2021/08/21 06:29:04;;;;;;;10.32;7.25;;;;;;;;;;5012549;28;20514;-52
2021/08/21 06:31:32;;;;;;;9.35;7.22;;;;;;;;;;5012582;28;20038;-52
2021/08/21 06:33:59;;;;;;;9.13;7.18;;;;;;;;;;5011864;28;20045;-51
2021/08/21 06:36:26;;;;;;;9.40;7.35;;;;;;;;;;5011707;28;20042;-54
2021/08/21 06:38:53;;;;;;;10.35;6.78;;;;;;;;;;5012086;28;20045;-51
2021/08/21 06:41:20;;;;;;;9.35;6.30;;;;;;;;;;5012779;28;20050;-52
2021/08/21 06:43:48;;;;;;;9.43;6.15;;;;;;;;;;5011180;28;20065;-51
2021/08/21 06:46:23;;;;;;;7.75;5.40;;;;;;;;;;5011573;28;20125;-51
2021/08/21 06:48:50;;;;;;;7.20;5.53;;;;;;;;;;5012511;28;20050;-51
2021/08/21 06:51:16;;;;;;;7.45;5.40;;;;;;;;;;5012253;28;20048;-50
2021/08/21 06:53:43;;;;;;;9.68;6.07;;;;;;;;;;5012064;28;20048;-54
2021/08/21 06:56:10;;;;;;;8.52;5.88;;;;;;;;;;5011316;28;20053;-53
2021/08/21 06:58:36;;;;;;;7.22;5.50;;;;;;;;;;5012018;28;20045;-50
2021/08/21 07:01:03;;;;;;;9.30;5.43;;;;;;;;;;5012095;28;20364;-49
2021/08/21 07:03:30;;;;;;;7.57;5.75;;;;;;;;;;5011648;28;20048;-48
2021/08/21 07:05:57;;;;;;;8.75;5.57;;;;;;;;;;5011475;28;20048;-52
2021/08/21 07:08:24;;;;;;;10.25;6.35;;;;;;;;;;5012015;28;20041;-50
2021/08/21 07:10:51;;;;;;;10.88;5.45;;;;;;;;;;5012071;28;20337;-49
2021/08/21 07:13:18;;;;;;;8.85;5.90;;;;;;;;;;5011818;28;20073;-50
2021/08/21 07:15:50;;;;;;;6.60;5.13;;;;;;;;;;5011444;28;20060;-50
2021/08/21 07:18:17;;;;;;;6.25;4.97;;;;;;;;;;5011947;28;20034;-49
2021/08/21 07:20:44;;;;;;;7.80;5.68;;;;;;;;;;5012262;28;20375;-50
2021/08/21 07:23:11;;;;;;;7.30;5.57;;;;;;;;;;5011965;28;20479;-48
2021/08/21 07:25:38;;;;;;;6.70;5.22;;;;;;;;;;5010922;28;20129;-52
2021/08/21 07:28:04;;;;;;;8.85;5.68;;;;;;;;;;5028303;28;20132;-53
2021/08/21 07:30:31;;;;;;;8.45;5.80;;;;;;;;;;5031230;28;20042;-49
2021/08/21 07:32:58;;;;;;;7.38;5.43;;;;;;;;;;5021974;28;20049;-50
2021/08/21 07:35:25;;;;;;;8.60;5.90;;;;;;;;;;5010729;28;20054;-50
2021/08/21 07:37:51;;;;;;;7.65;5.50;;;;;;;;;;5011337;28;20046;-50
2021/08/21 07:40:19;;;;;;;6.95;5.10;;;;;;;;;;5014925;28;20034;-52
2021/08/21 07:42:45;;;;;;;6.20;4.72;;;;;;;;;;5027151;28;20042;-53
2021/08/21 07:45:13;;;;;;;8.57;5.78;;;;;;;;;;5030567;28;20056;-51
2021/08/21 07:47:40;;;;;;;9.50;5.72;;;;;;;;;;5034558;28;20080;-48
2021/08/21 07:50:06;;;;;;;9.25;5.40;;;;;;;;;;5053937;28;20045;-51
2021/08/21 07:52:33;;;;;;;9.15;5.65;;;;;;;;;;5046614;28;20509;-50
2021/08/21 07:55:00;;;;;;;8.75;5.85;;;;;;;;;;5034708;28;20431;-53
2021/08/21 07:57:27;;;;;;;7.43;5.40;;;;;;;;;;5026183;28;20124;-51
2021/08/21 07:59:53;;;;;;;7.25;5.55;;;;;;;;;;5026630;28;20049;-50
2021/08/21 08:02:20;;;;;;;6.72;5.18;;;;;;;;;;5035051;28;20069;-52
2021/08/21 08:04:47;;;;;;;9.80;5.70;;;;;;;;;;5034377;28;20483;-51
2021/08/21 08:07:14;;;;;;;6.90;5.75;;;;;;;;;;5032240;28;20100;-51
2021/08/21 08:09:42;;;;;;;11.30;6.55;;;;;;;;;;5028840;28;20041;-53
2021/08/21 08:12:09;;;;;;;6.85;5.47;;;;;;;;;;5028887;28;20089;-49
2021/08/21 08:14:36;;;;;;;7.43;5.20;;;;;;;;;;5020067;28;20045;-50
2021/08/21 08:17:02;;;;;;;9.95;5.93;;;;;;;;;;5028673;28;20045;-51
2021/08/21 08:19:29;;;;;;;7.57;5.60;;;;;;;;;;5034382;28;20052;-53
2021/08/21 08:21:56;;;;;;;7.78;5.43;;;;;;;;;;5034908;28;20487;-51
2021/08/21 08:24:24;;;;;;;8.23;5.40;;;;;;;;;;5027889;28;20137;-50
2021/08/21 08:26:50;;;;;;;7.88;5.18;;;;;;;;;;5030818;28;20075;-48
2021/08/21 08:29:17;;;;;;;7.03;5.38;;;;;;;;;;5032545;28;20103;-49
2021/08/21 08:31:44;;;;;;;8.55;5.38;;;;;;;;;;5033726;28;20125;-51
2021/08/21 08:34:11;;;;;;;6.97;5.43;;;;;;;;;;5020273;28;20053;-50
2021/08/21 08:36:37;;;;;;;8.60;5.63;;;;;;;;;;5028511;28;20120;-52
2021/08/21 08:39:04;;;;;;;8.52;5.72;;;;;;;;;;5030710;28;20041;-50
2021/08/21 08:41:31;;;;;;;10.90;7.38;;;;;;;;;;5029777;28;20042;-49
2021/08/21 08:43:58;;;;;;;8.38;6.28;;;;;;;;;;5033405;28;20036;-52
2021/08/21 08:46:25;;;;;;;7.53;5.13;;;;;;;;;;5025716;28;20068;-51
2021/08/21 08:48:53;;;;;;;5.70;4.65;;;;;;;;;;5014260;28;20072;-50
2021/08/21 08:51:20;;;;;;;6.88;5.40;;;;;;;;;;5014170;28;20042;-51
2021/08/21 08:53:46;;;;;;;6.55;5.20;;;;;;;;;;5013997;28;20070;-52
2021/08/21 08:56:13;;;;;;;7.72;5.07;;;;;;;;;;5022166;28;21521;-53
2021/08/21 08:58:40;;;;;;;7.60;5.18;;;;;;;;;;5032856;28;20046;-49
2021/08/21 09:01:07;;;;;;;6.32;4.97;;;;;;;;;;5034333;28;20037;-51
2021/08/21 09:03:34;;;;;;;6.28;4.57;;;;;;;;;;5033660;28;20080;-53
2021/08/21 09:06:02;;;;;;;7.55;5.45;;;;;;;;;;5030803;28;20087;-51
2021/08/21 09:08:29;;;;;;;6.40;4.70;;;;;;;;;;5032465;28;20065;-53
2021/08/21 09:10:58;;;;;;;7.53;4.90;;;;;;;;;;5032017;28;20607;-51
2021/08/21 09:13:25;;;;;;;6.72;4.60;;;;;;;;;;5032361;28;20045;-52
2021/08/21 09:15:58;;;;;;;5.13;4.50;;;;;;;;;;5032631;28;20073;-50
2021/08/21 09:18:25;;;;;;;6.43;4.72;;;;;;;;;;5016101;28;20159;-49
2021/08/21 09:21:10;;;;;;;8.25;4.75;;;;;;;;;;5030100;28;20124;-50
2021/08/21 09:23:38;;;;;;;7.65;4.82;;;;;;;;;;5029035;28;20041;-50
2021/08/21 09:26:05;;;;;;;6.50;4.53;;;;;;;;;;5029450;28;20054;-52
2021/08/21 09:28:32;;;;;;;6.45;4.90;;;;;;;;;;5030899;28;20057;-50
2021/08/21 09:31:09;;;;;;;6.25;5.07;;;;;;;;;;5032631;28;20041;-49
2021/08/21 09:33:37;;;;;;;7.03;4.80;;;;;;;;;;5027511;28;20041;-54
2021/08/21 09:36:04;;;;;;;5.97;4.53;;;;;;;;;;5031603;28;20394;-51
2021/08/21 09:38:32;;;;;;;6.97;4.28;;;;;;;;;;5016437;28;20065;-49
2021/08/21 09:41:04;;;;;;;6.30;5.10;;;;;;;;;;5031292;28;20045;-50
2021/08/21 09:43:32;;;;;;;5.55;4.60;;;;;;;;;;5016021;28;20199;-54
2021/08/21 09:46:26;;;;;;;6.10;4.57;;;;;;;;;;5016131;28;20037;-51
2021/08/21 09:48:52;;;;;;;;;;;;;;;;;;5020800;28;20528;-54
2021/08/21 09:51:49;;;;;;;6.20;4.38;;;;;;;;;;5028348;28;19921;-50
2021/08/21 09:54:16;;;;;;;7.70;4.80;;;;;;;;;;5023626;28;20051;-51
2021/08/21 09:56:45;;;;;;;8.13;4.22;;;;;;;;;;5026876;28;20457;-50
2021/08/21 09:59:11;;;;;;;5.93;4.47;;;;;;;;;;5028532;28;20132;-51
2021/08/21 10:01:39;;;;;;;6.65;5.05;;;;;;;;;;5028621;28;20065;-51
2021/08/21 10:04:06;;;;;;;7.35;4.82;;;;;;;;;;5027576;28;20452;-51
2021/08/21 10:06:33;;;;;;;7.85;4.70;;;;;;;;;;5028336;28;20495;-50
2021/08/21 10:09:04;;;;;;;6.75;4.32;;;;;;;;;;5027779;28;20136;-51
2021/08/21 10:11:31;;;;;;;6.22;4.53;;;;;;;;;;5027982;28;20061;-51
2021/08/21 10:13:58;;;;;;;5.50;4.10;;;;;;;;;;5028499;28;20117;-49
2021/08/21 10:16:26;;;;;;;6.88;4.32;;;;;;;;;;5028286;28;20038;-51
2021/08/21 10:18:54;;;;;;;5.55;4.18;;;;;;;;;;5027659;28;20043;-53
2021/08/21 10:21:21;;;;;;;6.80;4.65;;;;;;;;;;5028233;28;20108;-51
2021/08/21 10:23:49;;;;;;;6.07;4.55;;;;;;;;;;5028071;28;20052;-49
2021/08/21 10:26:31;;;;;;;6.15;4.30;;;;;;;;;;5026279;28;20151;-50
2021/08/21 10:28:59;;;;;;;5.75;4.75;;;;;;;;;;5028440;28;20076;-50
2021/08/21 10:31:40;;;;;;;5.80;4.30;;;;;;;;;;5028111;28;20407;-52
2021/08/21 10:34:08;;;;;;;6.70;4.60;;;;;;;;;;5024871;28;20046;-52
2021/08/21 10:36:39;;;;;;;5.97;4.57;;;;;;;;;;5027923;28;20054;-49
2021/08/21 10:39:35;;;;;;;5.43;4.15;;;;;;;;;;5027759;28;20128;-52
2021/08/21 10:42:20;;;;;;;7.03;4.60;;;;;;;;;;5026808;28;20459;-53
2021/08/21 10:44:48;;;;;;;5.30;4.20;;;;;;;;;;5026641;28;20037;-52
2021/08/21 10:47:34;;;;;;;18.33;4.57;;;;;;;;;;5027624;28;20045;-53
2021/08/21 10:50:21;;;;;;;5.40;4.00;;;;;;;;;;5027022;28;20056;-50
2021/08/21 10:52:51;;;;;;;6.47;5.18;;;;;;;;;;5021647;28;20048;-49
2021/08/21 10:55:19;;;;;;;6.30;4.85;;;;;;;;;;5027094;28;20064;-50
2021/08/21 10:58:06;;;;;;;5.43;4.25;;;;;;;;;;5025932;28;20041;-50
2021/08/21 11:00:38;;;;;;;7.53;4.50;;;;;;;;;;5030125;28;20033;-51
2021/08/21 11:03:07;;;;;;;5.97;4.60;;;;;;;;;;5028254;28;20097;-54
2021/08/21 11:05:48;;;;;;;5.10;4.40;;;;;;;;;;5028621;28;20483;-51
2021/08/21 11:08:15;;;;;;;6.78;5.25;;;;;;;;;;5034193;28;20501;-49
2021/08/21 11:10:42;;;;;;;6.47;5.22;;;;;;;;;;5029217;28;20055;-50
2021/08/21 11:13:11;;;;;;;5.38;4.40;;;;;;;;;;5028815;28;20429;-52
2021/08/21 11:15:39;;;;;;;7.97;4.93;;;;;;;;;;5028806;28;20034;-49
2021/08/21 11:18:21;;;;;;;6.68;5.13;;;;;;;;;;5028369;28;20128;-52
2021/08/21 11:20:48;;;;;;;5.28;4.13;;;;;;;;;;5027401;28;20037;-49
2021/08/21 11:23:14;;;;;;;8.52;4.95;;;;;;;;;;5008625;28;20478;-50
2021/08/21 11:25:43;;;;;;;5.43;4.28;;;;;;;;;;5028099;28;20041;-55
2021/08/21 11:28:13;;;;;;;5.68;4.85;;;;;;;;;;5029811;28;20065;-53
2021/08/21 11:30:40;;;;;;;4.82;3.88;;;;;;;;;;5023969;28;20151;-52
2021/08/21 11:33:09;;;;;;;4.75;3.92;;;;;;;;;;5048311;28;20061;-52
2021/08/21 11:35:37;;;;;;;6.45;4.22;;;;;;;;;;5033623;28;20079;-52
2021/08/21 11:38:08;;;;;;;4.88;4.10;;;;;;;;;;5029239;28;20129;-51
2021/08/21 11:40:35;;;;;;;5.95;4.15;;;;;;;;;;5029928;28;20432;-50
2021/08/21 11:43:03;;;;;;;5.03;4.43;;;;;;;;;;5021066;28;20092;-50
2021/08/21 11:45:31;;;;;;;5.53;4.40;;;;;;;;;;5029375;28;20124;-49
2021/08/21 11:47:58;;;;;;;4.80;3.95;;;;;;;;;;5048403;23;20042;-52
2021/08/21 11:50:34;;;;;;;8.15;3.92;;;;;;;;;;5023678;28;20042;-51
2021/08/21 11:53:05;;;;;;;5.53;4.05;;;;;;;;;;5005806;28;20030;-52
2021/08/21 11:55:33;;;;;;;4.53;3.60;;;;;;;;;;5011141;28;20046;-50
2021/08/21 11:58:00;;;;;;;5.00;3.60;;;;;;;;;;5006164;28;20100;-51
2021/08/21 12:00:29;;;;;;;6.25;3.83;;;;;;;;;;5011514;28;20117;-51
2021/08/21 12:02:58;;;;;;;5.18;3.72;;;;;;;;;;5011060;28;20038;-52
2021/08/21 12:05:25;;;;;;;4.78;3.83;;;;;;;;;;5012470;28;20057;-54
2021/08/21 12:07:52;;;;;;;6.15;4.68;;;;;;;;;;5011830;28;20129;-51
2021/08/21 12:10:27;;;;;;;5.55;3.70;;;;;;;;;;5009071;28;20526;-49
2021/08/21 12:12:55;;;;;;;6.65;3.70;;;;;;;;;;5013716;28;20070;-48
2021/08/21 12:15:26;;;;;;;5.32;3.90;;;;;;;;;;5014886;28;20046;-52
2021/08/21 12:17:53;;;;;;;5.28;3.80;;;;;;;;;;5004152;28;20140;-49
2021/08/21 12:20:20;;;;;;;6.05;3.75;;;;;;;;;;5011465;28;20038;-50
2021/08/21 12:22:47;;;;;;;5.25;4.13;;;;;;;;;;5018085;28;20044;-48
2021/08/21 12:25:15;;;;;;;6.32;3.90;;;;;;;;;;5017823;28;20560;-50
2021/08/21 12:27:42;;;;;;;6.85;3.90;;;;;;;;;;5012861;28;20632;-50
2021/08/21 12:30:09;;;;;;;6.28;3.65;;;;;;;;;;5010997;28;20403;-51
2021/08/21 12:32:35;;;;;;;5.75;4.13;;;;;;;;;;5011587;28;20050;-49
2021/08/21 12:35:16;;;;;;;4.88;3.88;;;;;;;;;;5009807;28;20034;-50
2021/08/21 12:37:43;;;;;;;5.32;4.25;;;;;;;;;;4995514;28;20042;-51
2021/08/21 12:40:15;;;;;;;5.85;4.15;;;;;;;;;;4995398;28;20571;-48
2021/08/21 12:42:44;;;;;;;5.72;3.80;;;;;;;;;;4995710;28;20138;-49
2021/08/21 12:45:18;;;;;;;9.23;5.45;;;;;;;;;;4995108;28;20049;-54
2021/08/21 12:47:44;;;;;;;6.03;4.07;;;;;;;;;;4995099;28;20137;-51
2021/08/21 12:50:12;;;;;;;7.20;4.05;;;;;;;;;;4995160;28;20073;-49
2021/08/21 12:52:40;;;;;;;6.65;3.95;;;;;;;;;;5010122;28;20050;-47
2021/08/21 12:55:07;;;;;;;4.85;3.97;;;;;;;;;;4994787;28;20049;-48
2021/08/21 12:57:35;;;;;;;6.72;3.85;;;;;;;;;;4994914;28;20042;-49
2021/08/21 13:00:02;;;;;;;7.18;3.75;;;;;;;;;;4995110;28;20080;-49
2021/08/21 13:02:39;;;;;;;5.78;3.80;;;;;;;;;;4995350;28;20043;-48
2021/08/21 13:05:06;;;;;;;4.72;3.65;;;;;;;;;;4994978;28;20125;-49
2021/08/21 13:07:40;;;;;;;6.28;3.90;;;;;;;;;;4994780;28;20133;-48
2021/08/21 13:10:07;;;;;;;4.10;3.50;;;;;;;;;;4994769;28;20415;-48
2021/08/21 13:12:33;;;;;;;4.05;3.20;;;;;;;;;;4995144;28;20049;-49
2021/08/21 13:15:00;;;;;;;4.80;3.58;;;;;;;;;;4994814;28;20455;-47
2021/08/21 13:17:27;;;;;;;5.18;3.42;;;;;;;;;;5009717;28;20037;-48
2021/08/21 13:19:54;;;;;;;4.82;3.92;;;;;;;;;;5013667;28;20152;-50
2021/08/21 13:22:21;;;;;;;5.20;3.70;;;;;;;;;;5014288;28;20040;-48
2021/08/21 13:24:47;;;;;;;4.38;3.70;;;;;;;;;;5000448;28;20046;-47
2021/08/21 13:27:14;;;;;;;4.95;3.97;;;;;;;;;;4994811;28;20042;-49
2021/08/21 13:29:41;;;;;;;5.03;3.78;;;;;;;;;;4994772;28;20125;-49
2021/08/21 13:32:08;;;;;;;4.45;3.40;;;;;;;;;;4994446;28;20046;-47
2021/08/21 13:34:34;;;;;;;5.03;3.75;;;;;;;;;;4994264;28;20048;-51
2021/08/21 13:37:01;;;;;;;5.72;4.22;;;;;;;;;;4993175;28;20046;-49
2021/08/21 13:39:29;;;;;;;6.68;4.20;;;;;;;;;;4994359;28;20304;-48
2021/08/21 13:41:56;;;;;;;6.53;4.15;;;;;;;;;;4993452;28;20050;-51
2021/08/21 13:44:22;;;;;;;5.07;4.00;;;;;;;;;;4994289;28;20133;-52
2021/08/21 13:46:49;;;;;;;5.15;3.90;;;;;;;;;;4994844;28;20038;-50
2021/08/21 13:49:16;;;;;;;6.60;3.83;;;;;;;;;;4994081;28;20484;-48
2021/08/21 13:51:43;;;;;;;4.75;3.45;;;;;;;;;;4994506;28;20053;-47
2021/08/21 13:54:10;;;;;;;5.38;3.60;;;;;;;;;;4994191;28;20046;-49
2021/08/21 13:56:37;;;;;;;5.47;3.50;;;;;;;;;;4994496;28;20415;-51
2021/08/21 13:59:04;;;;;;;5.53;3.75;;;;;;;;;;4994229;28;20552;-48
2021/08/21 14:01:31;;;;;;;4.78;3.83;;;;;;;;;;4994490;28;20382;-48
2021/08/21 14:03:58;;;;;;;4.72;3.67;;;;;;;;;;4994086;28;20066;-51
2021/08/21 14:06:25;;;;;;;5.65;3.80;;;;;;;;;;4994049;28;20042;-47
2021/08/21 14:08:51;;;;;;;6.55;3.92;;;;;;;;;;4993552;28;20512;-52
2021/08/21 14:11:18;;;;;;;4.25;3.78;;;;;;;;;;4994141;28;20039;-48
2021/08/21 14:13:45;;;;;;;6.35;4.10;;;;;;;;;;4992841;28;20057;-48
2021/08/21 14:16:11;;;;;;;6.20;3.67;;;;;;;;;;4993673;28;20077;-50
2021/08/21 14:18:38;;;;;;;5.00;3.55;;;;;;;;;;4993597;28;20097;-48
2021/08/21 14:21:06;;;;;;;9.05;3.80;;;;;;;;;;4993770;28;20046;-48
2021/08/21 14:23:33;;;;;;;5.45;3.92;;;;;;;;;;4993765;28;20419;-47
2021/08/21 14:26:00;;;;;;;6.22;4.32;;;;;;;;;;4993425;28;20542;-48
2021/08/21 14:28:26;;;;;;;5.28;4.03;;;;;;;;;;4993623;28;20046;-51
2021/08/21 14:30:53;;;;;;;5.05;3.83;;;;;;;;;;4993617;28;20555;-48
2021/08/21 14:33:20;;;;;;;6.20;4.15;;;;;;;;;;4993267;28;20053;-50
2021/08/21 14:35:47;;;;;;;4.65;3.88;;;;;;;;;;4993166;28;20571;-50
2021/08/21 14:38:14;;;;;;;4.88;3.85;;;;;;;;;;4992895;28;20049;-48
2021/08/21 14:40:41;;;;;;;5.38;3.58;;;;;;;;;;4993245;28;20046;-49
2021/08/21 14:43:08;;;;;;;7.28;4.00;;;;;;;;;;4993226;28;20066;-49
2021/08/21 14:45:35;;;;;;;5.57;3.80;;;;;;;;;;4992849;28;20124;-52
2021/08/21 14:48:01;;;;;;;6.05;4.25;;;;;;;;;;4992905;28;20480;-48
2021/08/21 14:50:28;;;;;;;6.43;4.53;;;;;;;;;;4993516;28;20097;-50
2021/08/21 14:52:55;;;;;;;7.47;4.00;;;;;;;;;;4992001;28;20141;-53